sensor_id;sensor_type;location;lat;lon;timestamp;temperature;humidity
75091;DHT22;63674;48.048;8.306;2023-08-01T00:01:12;15.60;99.90
75091;DHT22;63674;48.048;8.306;2023-08-01T00:03:41;15.60;99.90
75091;DHT22;63674;48.048;8.306;2023-08-01T00:06:09;15.50;99.90
75091;DHT22;63674;48.048;8.306;2023-08-01T00:08:38;15.60;99.90
75091;DHT22;63674;48.048;8.306;2023-08-01T00:11:07;15.50;99.90
75091;DHT22;63674;48.048;8.306;2023-08-01T00:13:36;15.50;99.90
75091;DHT22;63674;48.048;8.306;2023-08-01T00:16:05;15.70;99.90
75091;DHT22;63674;48.048;8.306;2023-08-01T00:18:35;15.80;99.90
75091;DHT22;63674;48.048;8.306;2023-08-01T00:21:04;15.80;99.90
75091;DHT22;63674;48.048;8.306;2023-08-01T00:23:37;15.90;99.90
75091;DHT22;63674;48.048;8.306;2023-08-01T00:26:05;16.00;99.90
75091;DHT22;63674;48.048;8.306;2023-08-01T00:28:34;16.00;99.90
75091;DHT22;63674;48.048;8.306;2023-08-01T00:31:04;16.00;99.90
75091;DHT22;63674;48.048;8.306;2023-08-01T00:33:35;16.00;99.90
75091;DHT22;63674;48.048;8.306;2023-08-01T00:36:04;16.00;99.90
75091;DHT22;63674;48.048;8.306;2023-08-01T00:38:37;15.90;99.90
75091;DHT22;63674;48.048;8.306;2023-08-01T00:41:05;15.90;99.90
75091;DHT22;63674;48.048;8.306;2023-08-01T00:43:34;15.90;99.90
75091;DHT22;63674;48.048;8.306;2023-08-01T00:46:04;15.80;99.90
75091;DHT22;63674;48.048;8.306;2023-08-01T00:48:35;15.70;99.90
75091;DHT22;63674;48.048;8.306;2023-08-01T00:51:05;15.70;99.90
75091;DHT22;63674;48.048;8.306;2023-08-01T00:53:35;15.70;99.90
75091;DHT22;63674;48.048;8.306;2023-08-01T00:56:04;15.80;99.90
75091;DHT22;63674;48.048;8.306;2023-08-01T00:58:33;15.80;99.90
75091;DHT22;63674;48.048;8.306;2023-08-01T01:01:01;15.80;99.90
75091;DHT22;63674;48.048;8.306;2023-08-01T01:03:31;15.80;99.90
75091;DHT22;63674;48.048;8.306;2023-08-01T01:06:08;15.70;99.90
75091;DHT22;63674;48.048;8.306;2023-08-01T01:08:39;15.70;99.90
75091;DHT22;63674;48.048;8.306;2023-08-01T01:11:08;15.70;99.90
75091;DHT22;63674;48.048;8.306;2023-08-01T01:13:37;15.60;99.90
75091;DHT22;63674;48.048;8.306;2023-08-01T01:16:05;15.50;99.90
75091;DHT22;63674;48.048;8.306;2023-08-01T01:18:34;15.50;99.90
75091;DHT22;63674;48.048;8.306;2023-08-01T01:21:04;15.50;99.90
75091;DHT22;63674;48.048;8.306;2023-08-01T01:23:33;15.40;99.90
75091;DHT22;63674;48.048;8.306;2023-08-01T01:26:04;15.30;99.90
75091;DHT22;63674;48.048;8.306;2023-08-01T01:28:35;15.30;99.90
75091;DHT22;63674;48.048;8.306;2023-08-01T01:31:04;15.20;99.90
75091;DHT22;63674;48.048;8.306;2023-08-01T01:33:33;15.20;99.90
75091;DHT22;63674;48.048;8.306;2023-08-01T01:36:03;15.10;99.90
75091;DHT22;63674;48.048;8.306;2023-08-01T01:38:32;15.10;99.90
75091;DHT22;63674;48.048;8.306;2023-08-01T01:41:01;15.10;99.90
75091;DHT22;63674;48.048;8.306;2023-08-01T01:43:29;15.10;99.90
75091;DHT22;63674;48.048;8.306;2023-08-01T01:45:58;15.10;99.90
75091;DHT22;63674;48.048;8.306;2023-08-01T01:48:26;15.20;99.90
75091;DHT22;63674;48.048;8.306;2023-08-01T01:50:55;15.30;99.90
75091;DHT22;63674;48.048;8.306;2023-08-01T01:53:25;15.30;99.90
75091;DHT22;63674;48.048;8.306;2023-08-01T01:55:53;15.30;99.90
75091;DHT22;63674;48.048;8.306;2023-08-01T01:58:22;15.20;99.90
75091;DHT22;63674;48.048;8.306;2023-08-01T02:00:50;15.20;99.90
75091;DHT22;63674;48.048;8.306;2023-08-01T02:03:19;15.30;99.90
75091;DHT22;63674;48.048;8.306;2023-08-01T02:05:47;15.30;99.90
75091;DHT22;63674;48.048;8.306;2023-08-01T02:08:16;15.40;99.90
75091;DHT22;63674;48.048;8.306;2023-08-01T02:10:47;15.50;99.90
75091;DHT22;63674;48.048;8.306;2023-08-01T02:13:16;15.40;99.90
75091;DHT22;63674;48.048;8.306;2023-08-01T02:15:45;15.50;99.90
75091;DHT22;63674;48.048;8.306;2023-08-01T02:18:13;15.50;99.90
75091;DHT22;63674;48.048;8.306;2023-08-01T02:20:40;15.50;99.90
75091;DHT22;63674;48.048;8.306;2023-08-01T02:23:09;15.40;99.90
75091;DHT22;63674;48.048;8.306;2023-08-01T02:25:39;15.50;99.90
75091;DHT22;63674;48.048;8.306;2023-08-01T02:28:09;15.50;99.90
75091;DHT22;63674;48.048;8.306;2023-08-01T02:30:39;15.50;99.90
75091;DHT22;63674;48.048;8.306;2023-08-01T02:33:08;15.50;99.90
75091;DHT22;63674;48.048;8.306;2023-08-01T02:35:37;15.40;99.90
75091;DHT22;63674;48.048;8.306;2023-08-01T02:38:05;15.30;99.90
75091;DHT22;63674;48.048;8.306;2023-08-01T02:40:34;15.40;99.90
75091;DHT22;63674;48.048;8.306;2023-08-01T02:43:02;15.40;99.90
75091;DHT22;63674;48.048;8.306;2023-08-01T02:45:32;15.50;99.90
75091;DHT22;63674;48.048;8.306;2023-08-01T02:48:01;15.50;99.90
75091;DHT22;63674;48.048;8.306;2023-08-01T02:50:30;15.40;99.90
75091;DHT22;63674;48.048;8.306;2023-08-01T02:52:58;15.40;99.90
75091;DHT22;63674;48.048;8.306;2023-08-01T02:55:27;15.50;99.90
75091;DHT22;63674;48.048;8.306;2023-08-01T02:57:55;15.70;99.90
75091;DHT22;63674;48.048;8.306;2023-08-01T03:00:24;15.70;99.90
75091;DHT22;63674;48.048;8.306;2023-08-01T03:02:55;15.80;99.90
75091;DHT22;63674;48.048;8.306;2023-08-01T03:05:24;15.70;99.90
75091;DHT22;63674;48.048;8.306;2023-08-01T03:07:52;15.70;99.90
75091;DHT22;63674;48.048;8.306;2023-08-01T03:10:21;15.80;99.90
75091;DHT22;63674;48.048;8.306;2023-08-01T03:12:56;15.70;99.90
75091;DHT22;63674;48.048;8.306;2023-08-01T03:15:25;15.80;99.90
75091;DHT22;63674;48.048;8.306;2023-08-01T03:17:55;15.70;99.90
75091;DHT22;63674;48.048;8.306;2023-08-01T03:20:24;15.80;99.90
75091;DHT22;63674;48.048;8.306;2023-08-01T03:22:52;15.80;99.90
75091;DHT22;63674;48.048;8.306;2023-08-01T03:25:21;15.80;99.90
75091;DHT22;63674;48.048;8.306;2023-08-01T03:27:49;15.90;99.90
75091;DHT22;63674;48.048;8.306;2023-08-01T03:30:18;15.90;99.90
75091;DHT22;63674;48.048;8.306;2023-08-01T03:32:48;15.80;99.90
75091;DHT22;63674;48.048;8.306;2023-08-01T03:35:18;15.80;99.90
75091;DHT22;63674;48.048;8.306;2023-08-01T03:37:47;15.70;99.90
75091;DHT22;63674;48.048;8.306;2023-08-01T03:40:15;15.60;99.90
75091;DHT22;63674;48.048;8.306;2023-08-01T03:42:44;15.50;99.90
75091;DHT22;63674;48.048;8.306;2023-08-01T03:45:13;15.50;99.90
75091;DHT22;63674;48.048;8.306;2023-08-01T03:47:41;15.40;99.90
75091;DHT22;63674;48.048;8.306;2023-08-01T03:50:10;15.40;99.90
75091;DHT22;63674;48.048;8.306;2023-08-01T03:52:42;15.30;99.90
75091;DHT22;63674;48.048;8.306;2023-08-01T03:55:10;15.20;99.90
75091;DHT22;63674;48.048;8.306;2023-08-01T03:57:39;15.20;99.90
75091;DHT22;63674;48.048;8.306;2023-08-01T04:00:08;15.20;99.90
75091;DHT22;63674;48.048;8.306;2023-08-01T04:02:40;15.10;99.90
75091;DHT22;63674;48.048;8.306;2023-08-01T04:05:13;15.10;99.90
75091;DHT22;63674;48.048;8.306;2023-08-01T04:07:43;15.10;99.90
75091;DHT22;63674;48.048;8.306;2023-08-01T04:10:12;15.10;99.90
75091;DHT22;63674;48.048;8.306;2023-08-01T04:12:40;15.00;99.90
75091;DHT22;63674;48.048;8.306;2023-08-01T04:15:10;15.10;99.90
75091;DHT22;63674;48.048;8.306;2023-08-01T04:17:38;15.00;99.90
75091;DHT22;63674;48.048;8.306;2023-08-01T04:20:07;15.00;99.90
75091;DHT22;63674;48.048;8.306;2023-08-01T04:22:36;15.00;99.90
75091;DHT22;63674;48.048;8.306;2023-08-01T04:25:07;15.00;99.90
75091;DHT22;63674;48.048;8.306;2023-08-01T04:27:36;15.00;99.90
75091;DHT22;63674;48.048;8.306;2023-08-01T04:30:06;15.00;99.90
75091;DHT22;63674;48.048;8.306;2023-08-01T04:32:35;15.00;99.90
75091;DHT22;63674;48.048;8.306;2023-08-01T04:35:05;14.90;99.90
75091;DHT22;63674;48.048;8.306;2023-08-01T04:37:33;14.90;99.90
75091;DHT22;63674;48.048;8.306;2023-08-01T04:40:02;14.90;99.90
75091;DHT22;63674;48.048;8.306;2023-08-01T04:42:33;14.90;99.90
75091;DHT22;63674;48.048;8.306;2023-08-01T04:45:01;14.90;99.90
75091;DHT22;63674;48.048;8.306;2023-08-01T04:47:30;14.80;99.90
75091;DHT22;63674;48.048;8.306;2023-08-01T04:49:59;14.80;99.90
75091;DHT22;63674;48.048;8.306;2023-08-01T04:52:27;14.80;99.90
75091;DHT22;63674;48.048;8.306;2023-08-01T04:54:56;14.80;99.90
75091;DHT22;63674;48.048;8.306;2023-08-01T04:57:24;14.80;99.90
75091;DHT22;63674;48.048;8.306;2023-08-01T04:59:54;14.80;99.90
75091;DHT22;63674;48.048;8.306;2023-08-01T05:02:23;14.80;99.90
75091;DHT22;63674;48.048;8.306;2023-08-01T05:04:51;14.70;99.90
75091;DHT22;63674;48.048;8.306;2023-08-01T05:07:20;14.70;99.90
75091;DHT22;63674;48.048;8.306;2023-08-01T05:09:48;14.60;99.90
75091;DHT22;63674;48.048;8.306;2023-08-01T05:12:17;14.60;99.90
75091;DHT22;63674;48.048;8.306;2023-08-01T05:14:45;14.60;99.90
75091;DHT22;63674;48.048;8.306;2023-08-01T05:17:16;14.50;99.90
75091;DHT22;63674;48.048;8.306;2023-08-01T05:19:44;14.40;99.90
75091;DHT22;63674;48.048;8.306;2023-08-01T05:22:13;14.40;99.90
75091;DHT22;63674;48.048;8.306;2023-08-01T05:24:41;14.40;99.90
75091;DHT22;63674;48.048;8.306;2023-08-01T05:27:10;14.30;99.90
75091;DHT22;63674;48.048;8.306;2023-08-01T05:29:38;14.30;99.90
75091;DHT22;63674;48.048;8.306;2023-08-01T05:32:07;14.30;99.90
75091;DHT22;63674;48.048;8.306;2023-08-01T05:34:37;14.40;99.90
75091;DHT22;63674;48.048;8.306;2023-08-01T05:37:06;14.40;99.90
75091;DHT22;63674;48.048;8.306;2023-08-01T05:39:34;14.50;99.90
75091;DHT22;63674;48.048;8.306;2023-08-01T05:42:04;14.60;99.90
75091;DHT22;63674;48.048;8.306;2023-08-01T05:44:35;14.60;99.90
75091;DHT22;63674;48.048;8.306;2023-08-01T05:47:04;14.50;99.90
75091;DHT22;63674;48.048;8.306;2023-08-01T05:49:33;14.50;99.90
75091;DHT22;63674;48.048;8.306;2023-08-01T05:52:03;14.50;99.90
75091;DHT22;63674;48.048;8.306;2023-08-01T05:54:32;14.60;99.90
75091;DHT22;63674;48.048;8.306;2023-08-01T05:57:01;14.60;99.90
75091;DHT22;63674;48.048;8.306;2023-08-01T05:59:30;14.50;99.90
75091;DHT22;63674;48.048;8.306;2023-08-01T06:01:58;14.50;99.90
75091;DHT22;63674;48.048;8.306;2023-08-01T06:04:27;14.40;99.90
75091;DHT22;63674;48.048;8.306;2023-08-01T06:06:55;14.30;99.90
75091;DHT22;63674;48.048;8.306;2023-08-01T06:09:25;14.40;99.90
75091;DHT22;63674;48.048;8.306;2023-08-01T06:11:54;14.40;99.90
75091;DHT22;63674;48.048;8.306;2023-08-01T06:14:23;14.40;99.90
75091;DHT22;63674;48.048;8.306;2023-08-01T06:16:51;14.40;99.90
75091;DHT22;63674;48.048;8.306;2023-08-01T06:19:20;14.30;99.90
75091;DHT22;63674;48.048;8.306;2023-08-01T06:21:49;14.30;99.90
75091;DHT22;63674;48.048;8.306;2023-08-01T06:24:18;14.30;99.90
75091;DHT22;63674;48.048;8.306;2023-08-01T06:26:47;14.30;99.90
75091;DHT22;63674;48.048;8.306;2023-08-01T06:29:16;14.40;99.90
75091;DHT22;63674;48.048;8.306;2023-08-01T06:31:44;14.40;99.90
75091;DHT22;63674;48.048;8.306;2023-08-01T06:34:13;14.40;99.90
75091;DHT22;63674;48.048;8.306;2023-08-01T06:36:42;14.40;99.90
75091;DHT22;63674;48.048;8.306;2023-08-01T06:39:10;14.40;99.90
75091;DHT22;63674;48.048;8.306;2023-08-01T06:41:39;14.40;99.90
75091;DHT22;63674;48.048;8.306;2023-08-01T06:44:09;14.30;99.90
75091;DHT22;63674;48.048;8.306;2023-08-01T06:46:37;14.40;99.90
75091;DHT22;63674;48.048;8.306;2023-08-01T06:49:06;14.30;99.90
75091;DHT22;63674;48.048;8.306;2023-08-01T06:51:35;14.40;99.90
75091;DHT22;63674;48.048;8.306;2023-08-01T06:54:04;14.40;99.90
75091;DHT22;63674;48.048;8.306;2023-08-01T06:56:32;14.40;99.90
75091;DHT22;63674;48.048;8.306;2023-08-01T06:59:01;14.40;99.90
75091;DHT22;63674;48.048;8.306;2023-08-01T07:01:32;14.40;99.90
75091;DHT22;63674;48.048;8.306;2023-08-01T07:04:02;14.40;99.90
75091;DHT22;63674;48.048;8.306;2023-08-01T07:06:31;14.30;99.90
75091;DHT22;63674;48.048;8.306;2023-08-01T07:08:59;14.30;99.90
75091;DHT22;63674;48.048;8.306;2023-08-01T07:11:28;14.40;99.90
75091;DHT22;63674;48.048;8.306;2023-08-01T07:13:56;14.50;99.90
75091;DHT22;63674;48.048;8.306;2023-08-01T07:16:25;14.50;99.90
75091;DHT22;63674;48.048;8.306;2023-08-01T07:18:55;14.50;99.90
75091;DHT22;63674;48.048;8.306;2023-08-01T07:21:23;14.50;99.90
75091;DHT22;63674;48.048;8.306;2023-08-01T07:23:52;14.50;99.90
75091;DHT22;63674;48.048;8.306;2023-08-01T07:26:20;14.50;99.90
75091;DHT22;63674;48.048;8.306;2023-08-01T07:28:49;14.50;99.90
75091;DHT22;63674;48.048;8.306;2023-08-01T07:31:18;14.50;99.90
75091;DHT22;63674;48.048;8.306;2023-08-01T07:33:46;14.60;99.90
75091;DHT22;63674;48.048;8.306;2023-08-01T07:36:16;14.60;99.90
75091;DHT22;63674;48.048;8.306;2023-08-01T07:38:45;14.60;99.90
75091;DHT22;63674;48.048;8.306;2023-08-01T07:41:13;14.70;99.90
75091;DHT22;63674;48.048;8.306;2023-08-01T07:43:42;14.80;99.90
75091;DHT22;63674;48.048;8.306;2023-08-01T07:46:10;14.70;99.90
75091;DHT22;63674;48.048;8.306;2023-08-01T07:48:39;14.70;99.90
75091;DHT22;63674;48.048;8.306;2023-08-01T07:51:08;14.60;99.90
75091;DHT22;63674;48.048;8.306;2023-08-01T07:53:39;14.60;99.90
75091;DHT22;63674;48.048;8.306;2023-08-01T07:56:08;14.60;99.90
75091;DHT22;63674;48.048;8.306;2023-08-01T07:58:36;14.60;99.90
75091;DHT22;63674;48.048;8.306;2023-08-01T08:01:05;14.60;99.90
75091;DHT22;63674;48.048;8.306;2023-08-01T08:03:34;14.60;99.90
75091;DHT22;63674;48.048;8.306;2023-08-01T08:06:03;14.70;99.90
75091;DHT22;63674;48.048;8.306;2023-08-01T08:08:32;14.70;99.90
75091;DHT22;63674;48.048;8.306;2023-08-01T08:11:03;14.80;99.90
75091;DHT22;63674;48.048;8.306;2023-08-01T08:13:31;14.70;99.90
75091;DHT22;63674;48.048;8.306;2023-08-01T08:16:00;14.70;99.90
75091;DHT22;63674;48.048;8.306;2023-08-01T08:18:29;14.70;99.90
75091;DHT22;63674;48.048;8.306;2023-08-01T08:20:57;14.70;99.90
75091;DHT22;63674;48.048;8.306;2023-08-01T08:23:25;14.80;99.90
75091;DHT22;63674;48.048;8.306;2023-08-01T08:25:54;14.80;99.90
75091;DHT22;63674;48.048;8.306;2023-08-01T08:28:29;14.70;99.90
75091;DHT22;63674;48.048;8.306;2023-08-01T08:31:00;14.70;99.90
75091;DHT22;63674;48.048;8.306;2023-08-01T08:33:30;14.70;99.90
75091;DHT22;63674;48.048;8.306;2023-08-01T08:35:59;14.70;99.90
75091;DHT22;63674;48.048;8.306;2023-08-01T08:38:27;14.70;99.90
75091;DHT22;63674;48.048;8.306;2023-08-01T08:41:06;14.80;99.90
75091;DHT22;63674;48.048;8.306;2023-08-01T08:43:38;14.80;99.90
75091;DHT22;63674;48.048;8.306;2023-08-01T08:46:09;14.90;99.90
75091;DHT22;63674;48.048;8.306;2023-08-01T08:48:40;15.00;99.90
75091;DHT22;63674;48.048;8.306;2023-08-01T08:51:09;15.00;99.90
75091;DHT22;63674;48.048;8.306;2023-08-01T08:53:40;15.00;99.90
75091;DHT22;63674;48.048;8.306;2023-08-01T08:56:09;15.00;99.90
75091;DHT22;63674;48.048;8.306;2023-08-01T08:58:40;15.00;99.90
75091;DHT22;63674;48.048;8.306;2023-08-01T09:01:09;15.00;99.90
75091;DHT22;63674;48.048;8.306;2023-08-01T09:03:38;15.00;99.90
75091;DHT22;63674;48.048;8.306;2023-08-01T09:06:09;15.10;99.90
75091;DHT22;63674;48.048;8.306;2023-08-01T09:08:47;15.00;99.90
75091;DHT22;63674;48.048;8.306;2023-08-01T09:11:19;15.10;99.90
75091;DHT22;63674;48.048;8.306;2023-08-01T09:13:50;15.10;99.90
75091;DHT22;63674;48.048;8.306;2023-08-01T09:16:18;15.10;99.90
75091;DHT22;63674;48.048;8.306;2023-08-01T09:18:49;15.30;99.90
75091;DHT22;63674;48.048;8.306;2023-08-01T09:21:18;15.40;99.90
75091;DHT22;63674;48.048;8.306;2023-08-01T09:23:47;15.40;99.90
75091;DHT22;63674;48.048;8.306;2023-08-01T09:26:17;15.40;99.90
75091;DHT22;63674;48.048;8.306;2023-08-01T09:28:56;15.40;99.90
75091;DHT22;63674;48.048;8.306;2023-08-01T09:31:28;15.40;99.90
75091;DHT22;63674;48.048;8.306;2023-08-01T09:33:58;15.40;99.90
75091;DHT22;63674;48.048;8.306;2023-08-01T09:36:27;15.30;99.90
75091;DHT22;63674;48.048;8.306;2023-08-01T09:39:00;15.30;99.90
75091;DHT22;63674;48.048;8.306;2023-08-01T09:41:30;15.30;99.90
75091;DHT22;63674;48.048;8.306;2023-08-01T09:44:01;15.40;99.90
75091;DHT22;63674;48.048;8.306;2023-08-01T09:46:30;15.40;99.90
75091;DHT22;63674;48.048;8.306;2023-08-01T09:49:07;15.40;99.90
75091;DHT22;63674;48.048;8.306;2023-08-01T09:51:46;15.50;99.90
75091;DHT22;63674;48.048;8.306;2023-08-01T09:54:16;15.50;99.90
75091;DHT22;63674;48.048;8.306;2023-08-01T09:56:46;15.50;99.90
75091;DHT22;63674;48.048;8.306;2023-08-01T09:59:21;15.50;99.90
75091;DHT22;63674;48.048;8.306;2023-08-01T10:02:15;15.60;99.90
75091;DHT22;63674;48.048;8.306;2023-08-01T10:04:44;15.60;99.90
75091;DHT22;63674;48.048;8.306;2023-08-01T10:07:13;15.60;99.90
75091;DHT22;63674;48.048;8.306;2023-08-01T10:09:43;15.60;99.90
75091;DHT22;63674;48.048;8.306;2023-08-01T10:12:13;15.60;99.90
75091;DHT22;63674;48.048;8.306;2023-08-01T10:14:45;15.60;99.90
75091;DHT22;63674;48.048;8.306;2023-08-01T10:17:14;15.60;99.90
75091;DHT22;63674;48.048;8.306;2023-08-01T10:19:45;15.70;99.90
75091;DHT22;63674;48.048;8.306;2023-08-01T10:22:14;15.80;99.90
75091;DHT22;63674;48.048;8.306;2023-08-01T10:24:44;16.00;99.90
75091;DHT22;63674;48.048;8.306;2023-08-01T10:27:14;16.00;99.90
75091;DHT22;63674;48.048;8.306;2023-08-01T10:29:45;16.10;99.90
75091;DHT22;63674;48.048;8.306;2023-08-01T10:32:29;16.00;99.90
75091;DHT22;63674;48.048;8.306;2023-08-01T10:34:59;16.00;99.90
75091;DHT22;63674;48.048;8.306;2023-08-01T10:37:39;15.90;99.90
75091;DHT22;63674;48.048;8.306;2023-08-01T10:40:09;15.90;99.90
75091;DHT22;63674;48.048;8.306;2023-08-01T10:42:42;16.00;99.90
75091;DHT22;63674;48.048;8.306;2023-08-01T10:45:22;16.00;99.90
75091;DHT22;63674;48.048;8.306;2023-08-01T10:48:06;15.90;99.90
75091;DHT22;63674;48.048;8.306;2023-08-01T10:50:36;15.80;99.90
75091;DHT22;63674;48.048;8.306;2023-08-01T10:53:06;15.80;99.90
75091;DHT22;63674;48.048;8.306;2023-08-01T10:55:40;15.80;99.90
75091;DHT22;63674;48.048;8.306;2023-08-01T10:58:09;15.90;99.90
75091;DHT22;63674;48.048;8.306;2023-08-01T11:00:39;16.00;99.90
75091;DHT22;63674;48.048;8.306;2023-08-01T11:03:08;16.10;99.90
75091;DHT22;63674;48.048;8.306;2023-08-01T11:05:37;16.40;99.90
75091;DHT22;63674;48.048;8.306;2023-08-01T11:08:06;16.40;99.90
75091;DHT22;63674;48.048;8.306;2023-08-01T11:10:34;16.40;99.90
75091;DHT22;63674;48.048;8.306;2023-08-01T11:13:03;16.50;99.90
75091;DHT22;63674;48.048;8.306;2023-08-01T11:15:31;16.40;99.90
75091;DHT22;63674;48.048;8.306;2023-08-01T11:18:02;16.40;99.90
75091;DHT22;63674;48.048;8.306;2023-08-01T11:20:31;16.30;99.90
75091;DHT22;63674;48.048;8.306;2023-08-01T11:23:00;16.40;99.90
75091;DHT22;63674;48.048;8.306;2023-08-01T11:25:32;16.60;99.90
75091;DHT22;63674;48.048;8.306;2023-08-01T11:28:05;16.60;99.90
75091;DHT22;63674;48.048;8.306;2023-08-01T11:30:35;16.60;99.90
75091;DHT22;63674;48.048;8.306;2023-08-01T11:33:14;16.60;99.90
75091;DHT22;63674;48.048;8.306;2023-08-01T11:35:43;16.60;99.90
75091;DHT22;63674;48.048;8.306;2023-08-01T11:38:12;16.80;99.90
75091;DHT22;63674;48.048;8.306;2023-08-01T11:40:41;17.20;99.90
75091;DHT22;63674;48.048;8.306;2023-08-01T11:43:10;17.50;99.90
75091;DHT22;63674;48.048;8.306;2023-08-01T11:45:48;17.60;99.90
75091;DHT22;63674;48.048;8.306;2023-08-01T11:48:19;17.60;99.90
75091;DHT22;63674;48.048;8.306;2023-08-01T11:50:49;17.70;99.90
75091;DHT22;63674;48.048;8.306;2023-08-01T11:53:18;17.80;99.90
75091;DHT22;63674;48.048;8.306;2023-08-01T11:55:48;17.80;99.90
75091;DHT22;63674;48.048;8.306;2023-08-01T11:58:28;17.90;99.90
75091;DHT22;63674;48.048;8.306;2023-08-01T12:01:04;18.00;99.90
75091;DHT22;63674;48.048;8.306;2023-08-01T12:03:44;17.80;99.90
75091;DHT22;63674;48.048;8.306;2023-08-01T12:06:13;17.70;99.90
75091;DHT22;63674;48.048;8.306;2023-08-01T12:08:43;17.50;99.90
75091;DHT22;63674;48.048;8.306;2023-08-01T12:11:22;17.30;99.90
75091;DHT22;63674;48.048;8.306;2023-08-01T12:14:03;17.00;99.90
75091;DHT22;63674;48.048;8.306;2023-08-01T12:16:32;16.70;99.90
75091;DHT22;63674;48.048;8.306;2023-08-01T12:19:03;16.60;99.90
75091;DHT22;63674;48.048;8.306;2023-08-01T12:21:33;16.40;99.90
75091;DHT22;63674;48.048;8.306;2023-08-01T12:24:02;16.30;99.90
75091;DHT22;63674;48.048;8.306;2023-08-01T12:26:31;16.20;99.90
75091;DHT22;63674;48.048;8.306;2023-08-01T12:29:00;16.10;99.90
75091;DHT22;63674;48.048;8.306;2023-08-01T12:31:28;16.10;99.90
75091;DHT22;63674;48.048;8.306;2023-08-01T12:33:57;16.10;99.90
75091;DHT22;63674;48.048;8.306;2023-08-01T12:36:27;16.00;99.90
75091;DHT22;63674;48.048;8.306;2023-08-01T12:38:56;15.90;99.90
75091;DHT22;63674;48.048;8.306;2023-08-01T12:41:24;16.00;99.90
75091;DHT22;63674;48.048;8.306;2023-08-01T12:43:53;16.00;99.90
75091;DHT22;63674;48.048;8.306;2023-08-01T12:46:22;15.90;99.90
75091;DHT22;63674;48.048;8.306;2023-08-01T12:48:51;15.90;99.90
75091;DHT22;63674;48.048;8.306;2023-08-01T12:51:19;16.00;99.90
75091;DHT22;63674;48.048;8.306;2023-08-01T12:53:49;15.90;99.90
75091;DHT22;63674;48.048;8.306;2023-08-01T12:56:18;15.90;99.90
75091;DHT22;63674;48.048;8.306;2023-08-01T12:58:47;15.90;99.90
75091;DHT22;63674;48.048;8.306;2023-08-01T13:01:15;15.90;99.90
75091;DHT22;63674;48.048;8.306;2023-08-01T13:03:47;15.80;99.90
75091;DHT22;63674;48.048;8.306;2023-08-01T13:06:15;15.60;99.90
75091;DHT22;63674;48.048;8.306;2023-08-01T13:08:44;15.60;99.90
75091;DHT22;63674;48.048;8.306;2023-08-01T13:11:14;15.60;99.90
75091;DHT22;63674;48.048;8.306;2023-08-01T13:13:44;15.70;99.90
75091;DHT22;63674;48.048;8.306;2023-08-01T13:16:13;15.90;99.90
75091;DHT22;63674;48.048;8.306;2023-08-01T13:18:41;15.90;99.90
75091;DHT22;63674;48.048;8.306;2023-08-01T13:21:13;16.00;99.90
75091;DHT22;63674;48.048;8.306;2023-08-01T13:23:42;16.00;99.90
75091;DHT22;63674;48.048;8.306;2023-08-01T13:26:10;16.10;99.90
75091;DHT22;63674;48.048;8.306;2023-08-01T13:28:40;16.30;99.90
75091;DHT22;63674;48.048;8.306;2023-08-01T13:31:09;16.40;99.90
75091;DHT22;63674;48.048;8.306;2023-08-01T13:33:37;16.60;99.90
75091;DHT22;63674;48.048;8.306;2023-08-01T13:36:06;16.70;99.90
75091;DHT22;63674;48.048;8.306;2023-08-01T13:38:34;16.80;99.90
75091;DHT22;63674;48.048;8.306;2023-08-01T13:41:03;16.90;99.90
75091;DHT22;63674;48.048;8.306;2023-08-01T13:43:32;16.90;99.90
75091;DHT22;63674;48.048;8.306;2023-08-01T13:46:11;17.00;99.90
75091;DHT22;63674;48.048;8.306;2023-08-01T13:48:55;16.90;99.90
75091;DHT22;63674;48.048;8.306;2023-08-01T13:51:24;17.00;99.90
75091;DHT22;63674;48.048;8.306;2023-08-01T13:53:52;17.00;99.90
75091;DHT22;63674;48.048;8.306;2023-08-01T13:56:22;17.10;99.90
75091;DHT22;63674;48.048;8.306;2023-08-01T13:58:52;17.20;99.90
75091;DHT22;63674;48.048;8.306;2023-08-01T14:01:22;17.20;99.90
75091;DHT22;63674;48.048;8.306;2023-08-01T14:03:51;17.10;99.90
75091;DHT22;63674;48.048;8.306;2023-08-01T14:06:19;17.20;99.90
75091;DHT22;63674;48.048;8.306;2023-08-01T14:08:50;17.20;99.90
75091;DHT22;63674;48.048;8.306;2023-08-01T14:11:19;17.20;99.90
75091;DHT22;63674;48.048;8.306;2023-08-01T14:13:47;17.10;99.90
75091;DHT22;63674;48.048;8.306;2023-08-01T14:16:16;17.10;99.90
75091;DHT22;63674;48.048;8.306;2023-08-01T14:18:46;17.20;99.90
75091;DHT22;63674;48.048;8.306;2023-08-01T14:21:14;17.40;99.90
75091;DHT22;63674;48.048;8.306;2023-08-01T14:23:43;17.50;99.90
75091;DHT22;63674;48.048;8.306;2023-08-01T14:26:12;17.50;99.90
75091;DHT22;63674;48.048;8.306;2023-08-01T14:28:40;17.70;99.90
75091;DHT22;63674;48.048;8.306;2023-08-01T14:31:09;17.70;99.90
75091;DHT22;63674;48.048;8.306;2023-08-01T14:33:38;18.00;99.90
75091;DHT22;63674;48.048;8.306;2023-08-01T14:36:09;18.20;99.90
75091;DHT22;63674;48.048;8.306;2023-08-01T14:38:39;18.30;99.90
75091;DHT22;63674;48.048;8.306;2023-08-01T14:41:10;18.40;99.90
75091;DHT22;63674;48.048;8.306;2023-08-01T14:44:00;18.40;99.90
75091;DHT22;63674;48.048;8.306;2023-08-01T14:46:28;18.50;99.90
75091;DHT22;63674;48.048;8.306;2023-08-01T14:48:57;18.60;99.90
75091;DHT22;63674;48.048;8.306;2023-08-01T14:51:27;18.60;99.90
75091;DHT22;63674;48.048;8.306;2023-08-01T14:53:56;18.50;99.90
75091;DHT22;63674;48.048;8.306;2023-08-01T14:56:24;18.30;99.90
75091;DHT22;63674;48.048;8.306;2023-08-01T14:58:53;18.20;99.90
75091;DHT22;63674;48.048;8.306;2023-08-01T15:01:21;18.10;99.90
75091;DHT22;63674;48.048;8.306;2023-08-01T15:03:50;17.70;99.90
75091;DHT22;63674;48.048;8.306;2023-08-01T15:06:18;17.50;99.90
75091;DHT22;63674;48.048;8.306;2023-08-01T15:08:49;17.40;99.90
75091;DHT22;63674;48.048;8.306;2023-08-01T15:11:17;17.20;99.90
75091;DHT22;63674;48.048;8.306;2023-08-01T15:13:46;17.20;99.90
75091;DHT22;63674;48.048;8.306;2023-08-01T15:16:14;17.20;99.90
75091;DHT22;63674;48.048;8.306;2023-08-01T15:18:43;17.20;99.90
75091;DHT22;63674;48.048;8.306;2023-08-01T15:21:11;17.10;99.90
75091;DHT22;63674;48.048;8.306;2023-08-01T15:23:40;17.00;99.90
75091;DHT22;63674;48.048;8.306;2023-08-01T15:26:10;16.90;99.90
75091;DHT22;63674;48.048;8.306;2023-08-01T15:28:39;16.70;99.90
75091;DHT22;63674;48.048;8.306;2023-08-01T15:31:09;16.70;99.90
75091;DHT22;63674;48.048;8.306;2023-08-01T15:33:38;16.70;99.90
75091;DHT22;63674;48.048;8.306;2023-08-01T15:36:10;16.80;99.90
75091;DHT22;63674;48.048;8.306;2023-08-01T15:38:39;16.90;99.90
75091;DHT22;63674;48.048;8.306;2023-08-01T15:41:07;17.00;99.90
75091;DHT22;63674;48.048;8.306;2023-08-01T15:43:39;16.90;99.90
75091;DHT22;63674;48.048;8.306;2023-08-01T15:46:09;16.90;99.90